Time;durP1;ratioP1;P1;durP2;ratioP2;P2;SDS_P1;SDS_P2;PMS_P1;PMS_P2;Temp;Humidity;BMP_temperature;BMP_pressure;BME280_temperature;BME280_humidity;BME280_pressure;Samples;Min_cycle;Max_cycle;Signal;HPM_P1;HPM_P2
2022/03/01 00:02:22;;;;;;;17.08;9.38;;;;;;;;;;5070702;28;20036;-92
2022/03/01 00:04:48;;;;;;;15.35;9.55;;;;;;;;;;5083067;28;20024;-92
2022/03/01 00:07:13;;;;;;;15.13;9.38;;;;;;;;;;5075925;28;20039;-88
2022/03/01 00:09:39;;;;;;;17.83;9.65;;;;;;;;;;5077535;28;20032;-87
2022/03/01 00:12:05;;;;;;;15.35;9.75;;;;;;;;;;5070297;28;20036;-87
2022/03/01 00:14:30;;;;;;;16.95;9.75;;;;;;;;;;5080106;28;20043;-86
2022/03/01 00:16:56;;;;;;;16.88;9.60;;;;;;;;;;5080750;28;20028;-87
2022/03/01 00:19:22;;;;;;;16.27;9.63;;;;;;;;;;5073198;28;20032;-87
2022/03/01 00:21:47;;;;;;;17.17;9.55;;;;;;;;;;5078164;28;20035;-94
2022/03/01 00:24:13;;;;;;;17.33;9.80;;;;;;;;;;5076135;28;20459;-93
2022/03/01 00:26:38;;;;;;;16.70;9.45;;;;;;;;;;5073280;28;20099;-86
2022/03/01 00:29:03;;;;;;;17.17;9.70;;;;;;;;;;5076105;28;20020;-90
2022/03/01 00:31:29;;;;;;;15.23;9.68;;;;;;;;;;5073479;28;20025;-86
2022/03/01 00:33:54;;;;;;;22.38;10.65;;;;;;;;;;5082379;28;20025;-87
2022/03/01 00:36:20;;;;;;;16.63;9.15;;;;;;;;;;5071133;28;20021;-92
2022/03/01 00:38:45;;;;;;;19.75;10.45;;;;;;;;;;5079040;28;20019;-90
2022/03/01 00:41:10;;;;;;;16.27;9.40;;;;;;;;;;5069959;28;20025;-87
2022/03/01 00:43:36;;;;;;;17.48;10.02;;;;;;;;;;5073161;28;20507;-86
2022/03/01 00:46:02;;;;;;;17.42;10.50;;;;;;;;;;5076841;28;20043;-90
2022/03/01 00:48:27;;;;;;;18.00;10.00;;;;;;;;;;5076034;28;20035;-87
2022/03/01 00:50:54;;;;;;;15.57;8.82;;;;;;;;;;5069251;28;20032;-86
2022/03/01 00:53:19;;;;;;;15.57;9.40;;;;;;;;;;5071853;28;20040;-87
2022/03/01 00:55:47;;;;;;;16.80;10.05;;;;;;;;;;5067129;28;20036;-87
2022/03/01 00:58:12;;;;;;;15.85;10.15;;;;;;;;;;5067506;28;20074;-90
2022/03/01 01:00:38;;;;;;;16.67;9.70;;;;;;;;;;5078481;28;20028;-87
2022/03/01 01:03:03;;;;;;;16.30;10.40;;;;;;;;;;5070279;28;20119;-86
2022/03/01 01:05:29;;;;;;;17.23;9.80;;;;;;;;;;5074119;28;20073;-92
2022/03/01 01:07:54;;;;;;;16.80;10.02;;;;;;;;;;5070987;28;20032;-87
2022/03/01 01:10:20;;;;;;;19.10;10.25;;;;;;;;;;5070930;28;20455;-86
2022/03/01 01:12:46;;;;;;;15.63;9.40;;;;;;;;;;5075230;28;20059;-87
2022/03/01 01:15:15;;;;;;;16.20;9.90;;;;;;;;;;5071086;28;21277;-86
2022/03/01 01:17:41;;;;;;;19.85;10.32;;;;;;;;;;5067991;28;20028;-92
2022/03/01 01:20:08;;;;;;;17.88;10.20;;;;;;;;;;5068034;28;20036;-88
2022/03/01 01:22:40;;;;;;;17.92;10.18;;;;;;;;;;5082218;28;20438;-90
2022/03/01 01:25:19;;;;;;;18.58;10.15;;;;;;;;;;5073089;28;20039;-89
2022/03/01 01:27:47;;;;;;;17.60;10.13;;;;;;;;;;5068147;28;20033;-87
2022/03/01 01:30:18;;;;;;;15.52;9.35;;;;;;;;;;5071332;28;20057;-91
2022/03/01 01:32:44;;;;;;;17.00;10.32;;;;;;;;;;5068362;28;20038;-87
2022/03/01 01:35:12;;;;;;;16.70;9.70;;;;;;;;;;5072607;28;20039;-90
2022/03/01 01:37:38;;;;;;;16.98;10.45;;;;;;;;;;5071846;28;20036;-86
2022/03/01 01:40:06;;;;;;;16.52;9.80;;;;;;;;;;5073605;28;20020;-87
2022/03/01 01:42:31;;;;;;;16.63;9.77;;;;;;;;;;5080618;28;20028;-87
2022/03/01 01:44:57;;;;;;;21.00;10.55;;;;;;;;;;5070858;28;20081;-90
2022/03/01 01:47:22;;;;;;;15.93;9.18;;;;;;;;;;5067130;28;20033;-91
2022/03/01 01:49:48;;;;;;;16.60;10.15;;;;;;;;;;5073545;28;20033;-87
2022/03/01 01:52:14;;;;;;;18.20;9.70;;;;;;;;;;5069554;28;20032;-86
2022/03/01 01:54:40;;;;;;;19.27;10.50;;;;;;;;;;5074482;28;20081;-89
2022/03/01 01:57:17;;;;;;;18.75;11.10;;;;;;;;;;5072359;28;20037;-90
2022/03/01 01:59:43;;;;;;;18.48;11.20;;;;;;;;;;5061518;28;20154;-86
2022/03/01 02:02:13;;;;;;;17.58;10.07;;;;;;;;;;5067574;28;20060;-87
2022/03/01 02:04:39;;;;;;;18.55;10.45;;;;;;;;;;5069888;28;20430;-89
2022/03/01 02:07:05;;;;;;;19.73;9.55;;;;;;;;;;5070717;28;20024;-86
2022/03/01 02:09:30;;;;;;;15.00;9.77;;;;;;;;;;5065968;28;20028;-92
2022/03/01 02:11:56;;;;;;;19.90;10.98;;;;;;;;;;5070377;28;20539;-87
2022/03/01 02:14:21;;;;;;;18.00;10.35;;;;;;;;;;5071050;28;20424;-87
2022/03/01 02:16:47;;;;;;;17.85;10.15;;;;;;;;;;5067096;28;20035;-89
2022/03/01 02:19:13;;;;;;;16.08;9.75;;;;;;;;;;5074537;28;20097;-91
2022/03/01 02:21:50;;;;;;;17.77;9.77;;;;;;;;;;5069993;28;20028;-91
2022/03/01 02:24:17;;;;;;;18.63;10.73;;;;;;;;;;5071003;28;20035;-90
2022/03/01 02:26:42;;;;;;;19.63;10.45;;;;;;;;;;5067340;28;20464;-91
2022/03/01 02:29:08;;;;;;;18.17;10.23;;;;;;;;;;5079834;28;20108;-91
2022/03/01 02:31:33;;;;;;;17.65;10.10;;;;;;;;;;5067130;28;20025;-91
2022/03/01 02:33:59;;;;;;;19.15;9.90;;;;;;;;;;5068386;28;20032;-94
2022/03/01 02:36:24;;;;;;;20.25;9.90;;;;;;;;;;5064552;28;20058;-91
2022/03/01 02:38:50;;;;;;;17.27;10.05;;;;;;;;;;5071398;28;20063;-89
2022/03/01 02:41:15;;;;;;;17.88;10.55;;;;;;;;;;5080015;28;20029;-92
2022/03/01 02:43:41;;;;;;;18.20;10.57;;;;;;;;;;5070068;28;20028;-92
2022/03/01 02:46:06;;;;;;;19.35;10.52;;;;;;;;;;5072345;28;20059;-86
2022/03/01 02:48:32;;;;;;;17.25;10.50;;;;;;;;;;5073909;28;20114;-87
2022/03/01 02:50:57;;;;;;;18.23;9.98;;;;;;;;;;5070792;28;20040;-87
2022/03/01 02:53:23;;;;;;;17.17;10.52;;;;;;;;;;5070014;28;20595;-92
2022/03/01 02:55:49;;;;;;;18.75;11.02;;;;;;;;;;5071708;28;20108;-87
2022/03/01 02:58:16;;;;;;;18.98;10.27;;;;;;;;;;5067899;28;20040;-87
2022/03/01 03:00:44;;;;;;;18.48;10.80;;;;;;;;;;5073560;28;20119;-87
2022/03/01 03:03:11;;;;;;;16.13;9.90;;;;;;;;;;5072877;28;20025;-91
2022/03/01 03:05:37;;;;;;;17.35;10.07;;;;;;;;;;5095046;28;20028;-93
2022/03/01 03:08:02;;;;;;;18.20;10.77;;;;;;;;;;5073309;28;20044;-87
2022/03/01 03:10:28;;;;;;;18.38;10.85;;;;;;;;;;5083769;28;20025;-89
2022/03/01 03:12:53;;;;;;;18.85;10.15;;;;;;;;;;5076170;28;20123;-92
2022/03/01 03:15:19;;;;;;;18.63;11.43;;;;;;;;;;5079015;28;20024;-89
2022/03/01 03:17:44;;;;;;;18.27;10.10;;;;;;;;;;5073993;28;20108;-87
2022/03/01 03:20:10;;;;;;;19.75;10.48;;;;;;;;;;5080019;28;20077;-88
2022/03/01 03:22:36;;;;;;;18.65;10.63;;;;;;;;;;5072713;28;20028;-86
2022/03/01 03:25:01;;;;;;;21.25;10.57;;;;;;;;;;5073618;28;20059;-92
2022/03/01 03:27:27;;;;;;;16.42;9.75;;;;;;;;;;5074893;28;20545;-87
2022/03/01 03:29:52;;;;;;;18.60;10.60;;;;;;;;;;5067249;28;20115;-92
2022/03/01 03:32:18;;;;;;;17.27;10.52;;;;;;;;;;5084362;28;20088;-90
2022/03/01 03:34:43;;;;;;;16.85;9.45;;;;;;;;;;5073045;28;20094;-87
2022/03/01 03:37:09;;;;;;;17.63;9.95;;;;;;;;;;5078491;28;20128;-91
2022/03/01 03:39:34;;;;;;;19.48;11.38;;;;;;;;;;5071566;28;20034;-86
2022/03/01 03:42:00;;;;;;;18.80;10.63;;;;;;;;;;5090425;28;20084;-89
2022/03/01 03:44:25;;;;;;;17.83;9.75;;;;;;;;;;5069942;28;20092;-87
2022/03/01 03:46:50;;;;;;;19.10;10.27;;;;;;;;;;5072312;28;20101;-92
2022/03/01 03:49:16;;;;;;;18.17;10.45;;;;;;;;;;5075181;28;20039;-91
2022/03/01 03:51:41;;;;;;;17.45;10.48;;;;;;;;;;5074698;28;20025;-90
2022/03/01 03:54:07;;;;;;;16.65;9.98;;;;;;;;;;5072711;28;20024;-87
2022/03/01 03:56:32;;;;;;;16.90;10.07;;;;;;;;;;5086534;28;20035;-87
2022/03/01 03:58:58;;;;;;;21.58;10.30;;;;;;;;;;5073853;28;20504;-90
2022/03/01 04:01:24;;;;;;;19.17;10.65;;;;;;;;;;5073747;28;20027;-90
2022/03/01 04:03:51;;;;;;;18.00;9.98;;;;;;;;;;5072467;28;20020;-88
2022/03/01 04:06:16;;;;;;;17.00;9.63;;;;;;;;;;5066211;28;20036;-87
2022/03/01 04:08:42;;;;;;;16.42;9.63;;;;;;;;;;5078994;28;20024;-87
2022/03/01 04:11:07;;;;;;;18.08;9.80;;;;;;;;;;5072371;28;20544;-90
2022/03/01 04:13:33;;;;;;;19.15;10.02;;;;;;;;;;5074094;28;20489;-87
2022/03/01 04:15:58;;;;;;;16.25;9.32;;;;;;;;;;5073261;28;20058;-90
2022/03/01 04:18:24;;;;;;;17.85;8.90;;;;;;;;;;5073258;28;20081;-91
2022/03/01 04:20:49;;;;;;;15.85;9.48;;;;;;;;;;5075910;28;20039;-90
2022/03/01 04:23:15;;;;;;;15.82;9.40;;;;;;;;;;5075375;28;20027;-90
2022/03/01 04:25:41;;;;;;;16.98;9.45;;;;;;;;;;5082560;28;21356;-91
2022/03/01 04:28:06;;;;;;;16.40;8.95;;;;;;;;;;5073536;28;20488;-86
2022/03/01 04:30:32;;;;;;;17.48;10.10;;;;;;;;;;5074567;28;20392;-92
2022/03/01 04:32:57;;;;;;;17.15;9.52;;;;;;;;;;5075498;28;20415;-87
2022/03/01 04:35:23;;;;;;;17.67;9.98;;;;;;;;;;5074535;28;20090;-90
2022/03/01 04:37:48;;;;;;;17.75;9.82;;;;;;;;;;5077821;28;20025;-92
2022/03/01 04:40:17;;;;;;;17.55;9.82;;;;;;;;;;5067675;28;20387;-90
2022/03/01 04:42:43;;;;;;;17.63;9.95;;;;;;;;;;5073994;28;20028;-90
2022/03/01 04:45:10;;;;;;;20.45;9.50;;;;;;;;;;5073791;28;20081;-91
2022/03/01 04:47:36;;;;;;;16.50;9.80;;;;;;;;;;5089959;28;20074;-92
2022/03/01 04:50:04;;;;;;;18.08;10.20;;;;;;;;;;5077858;28;20472;-91
2022/03/01 04:52:29;;;;;;;17.27;10.13;;;;;;;;;;5073788;28;20370;-87
2022/03/01 04:54:55;;;;;;;17.13;9.75;;;;;;;;;;5075168;28;20115;-87
2022/03/01 04:57:20;;;;;;;15.98;9.45;;;;;;;;;;5079389;28;20491;-91
2022/03/01 04:59:46;;;;;;;16.67;9.55;;;;;;;;;;5070493;28;20535;-87
2022/03/01 05:02:11;;;;;;;19.95;10.27;;;;;;;;;;5078468;28;21344;-88
2022/03/01 05:04:37;;;;;;;19.42;9.70;;;;;;;;;;5068217;28;20028;-92
2022/03/01 05:07:02;;;;;;;18.25;9.88;;;;;;;;;;5066016;28;20036;-86
2022/03/01 05:09:28;;;;;;;19.23;10.85;;;;;;;;;;5069268;28;20522;-88
2022/03/01 05:11:53;;;;;;;18.73;9.95;;;;;;;;;;5059769;28;20029;-87
2022/03/01 05:14:19;;;;;;;17.10;10.02;;;;;;;;;;5062746;28;20112;-90
2022/03/01 05:16:45;;;;;;;16.77;10.43;;;;;;;;;;5071210;28;20162;-88
2022/03/01 05:19:12;;;;;;;18.00;10.48;;;;;;;;;;5066319;28;20036;-92
2022/03/01 05:21:38;;;;;;;16.38;9.55;;;;;;;;;;5065174;28;20036;-90
2022/03/01 05:24:04;;;;;;;17.98;10.40;;;;;;;;;;5069087;28;20112;-91
2022/03/01 05:26:30;;;;;;;17.17;10.20;;;;;;;;;;5061985;28;20081;-86
2022/03/01 05:28:55;;;;;;;16.08;9.60;;;;;;;;;;5072845;28;20148;-90
2022/03/01 05:31:21;;;;;;;21.38;10.73;;;;;;;;;;5076938;28;20492;-87
2022/03/01 05:33:47;;;;;;;18.15;10.02;;;;;;;;;;5071990;28;20055;-87
2022/03/01 05:36:14;;;;;;;17.63;9.82;;;;;;;;;;5073394;28;20024;-87
2022/03/01 05:38:39;;;;;;;15.50;9.60;;;;;;;;;;5094256;28;20456;-91
2022/03/01 05:41:05;;;;;;;18.30;9.35;;;;;;;;;;5073506;28;20129;-87
2022/03/01 05:43:34;;;;;;;18.33;9.63;;;;;;;;;;5066003;28;20091;-91
2022/03/01 05:45:59;;;;;;;19.70;10.25;;;;;;;;;;5068328;28;20119;-87
2022/03/01 05:48:26;;;;;;;19.55;10.48;;;;;;;;;;5065971;28;20549;-87
2022/03/01 05:50:52;;;;;;;16.13;9.95;;;;;;;;;;5070320;28;20024;-88
2022/03/01 05:53:17;;;;;;;17.83;10.38;;;;;;;;;;5068852;28;20043;-87
2022/03/01 05:55:48;;;;;;;20.17;10.95;;;;;;;;;;5067637;28;20025;-88
2022/03/01 05:58:13;;;;;;;18.33;10.63;;;;;;;;;;5079725;28;20032;-87
2022/03/01 06:00:39;;;;;;;18.55;11.18;;;;;;;;;;5071284;28;20028;-88
2022/03/01 06:03:04;;;;;;;21.52;11.30;;;;;;;;;;5070561;28;20025;-90
2022/03/01 06:05:30;;;;;;;18.08;10.68;;;;;;;;;;5080112;28;20052;-91
2022/03/01 06:07:58;;;;;;;18.77;10.52;;;;;;;;;;5068284;28;20060;-90
2022/03/01 06:10:25;;;;;;;20.17;11.27;;;;;;;;;;5070453;28;20035;-90
2022/03/01 06:12:51;;;;;;;16.60;10.25;;;;;;;;;;5085123;28;20045;-87
2022/03/01 06:15:18;;;;;;;20.38;10.55;;;;;;;;;;5069472;28;20024;-88
2022/03/01 06:17:44;;;;;;;17.65;10.50;;;;;;;;;;5071684;28;20021;-88
2022/03/01 06:20:10;;;;;;;16.88;9.93;;;;;;;;;;5067886;28;20028;-87
2022/03/01 06:22:36;;;;;;;17.55;10.30;;;;;;;;;;5068832;28;20043;-91
2022/03/01 06:25:04;;;;;;;17.30;10.15;;;;;;;;;;5071929;28;20044;-92
2022/03/01 06:27:29;;;;;;;16.75;9.95;;;;;;;;;;5054497;28;20055;-88
2022/03/01 06:29:55;;;;;;;18.27;10.05;;;;;;;;;;5075724;28;20501;-87
2022/03/01 06:32:24;;;;;;;17.27;9.60;;;;;;;;;;5073216;28;20028;-88
2022/03/01 06:34:50;;;;;;;17.92;10.30;;;;;;;;;;5072606;28;20477;-91
2022/03/01 06:37:15;;;;;;;19.45;10.90;;;;;;;;;;5072180;28;20031;-90
2022/03/01 06:39:43;;;;;;;17.55;10.55;;;;;;;;;;5074486;28;20089;-90
2022/03/01 06:42:09;;;;;;;18.58;9.93;;;;;;;;;;5072077;28;20116;-90
2022/03/01 06:44:53;;;;;;;16.30;10.07;;;;;;;;;;5063146;28;20028;-87
2022/03/01 06:47:21;;;;;;;18.85;9.75;;;;;;;;;;5063191;28;20036;-88
2022/03/01 06:49:47;;;;;;;17.35;9.82;;;;;;;;;;5072472;28;20029;-90
2022/03/01 06:52:12;;;;;;;18.77;10.48;;;;;;;;;;5082553;28;20055;-92
2022/03/01 06:54:38;;;;;;;21.17;10.90;;;;;;;;;;5067683;28;20024;-87
2022/03/01 06:57:03;;;;;;;19.27;11.30;;;;;;;;;;5066718;28;20047;-91
2022/03/01 06:59:29;;;;;;;19.90;11.35;;;;;;;;;;5069331;28;20021;-89
2022/03/01 07:01:56;;;;;;;17.92;10.77;;;;;;;;;;5067468;28;20021;-86
2022/03/01 07:04:24;;;;;;;19.00;10.55;;;;;;;;;;5067558;28;20025;-91
2022/03/01 07:06:49;;;;;;;19.55;10.88;;;;;;;;;;5067264;28;20577;-91
2022/03/01 07:09:15;;;;;;;18.38;10.40;;;;;;;;;;5075880;28;20032;-91
2022/03/01 07:11:40;;;;;;;20.67;11.80;;;;;;;;;;5078438;28;20020;-90
2022/03/01 07:14:06;;;;;;;19.48;10.88;;;;;;;;;;5074981;28;20036;-92
2022/03/01 07:19:17;;;;;;;19.13;11.05;;;;;;;;;;5065787;28;20554;-88
2022/03/01 07:21:44;;;;;;;22.60;11.90;;;;;;;;;;5073723;28;20021;-87
2022/03/01 07:24:10;;;;;;;20.50;11.52;;;;;;;;;;5078343;28;20024;-87
2022/03/01 07:26:36;;;;;;;19.55;11.30;;;;;;;;;;5074812;28;20082;-92
2022/03/01 07:29:02;;;;;;;17.80;10.82;;;;;;;;;;5074173;28;20028;-87
2022/03/01 07:31:27;;;;;;;20.95;11.88;;;;;;;;;;5070741;28;20024;-92
2022/03/01 07:33:53;;;;;;;20.92;11.55;;;;;;;;;;5075441;28;20017;-92
2022/03/01 07:36:18;;;;;;;19.15;10.93;;;;;;;;;;5080678;28;20636;-91
2022/03/01 07:38:44;;;;;;;18.27;11.45;;;;;;;;;;5079729;28;20029;-87
2022/03/01 07:41:09;;;;;;;19.33;11.23;;;;;;;;;;5080853;28;20025;-87
2022/03/01 07:43:34;;;;;;;17.17;10.55;;;;;;;;;;5075479;28;20077;-92
2022/03/01 07:46:00;;;;;;;20.80;11.18;;;;;;;;;;5074331;28;20473;-86
2022/03/01 07:48:31;;;;;;;17.83;10.40;;;;;;;;;;5073687;28;20028;-90
2022/03/01 07:50:57;;;;;;;19.27;11.40;;;;;;;;;;5076775;28;20092;-91
2022/03/01 07:53:24;;;;;;;19.33;11.18;;;;;;;;;;5078160;28;20159;-87
2022/03/01 07:55:50;;;;;;;19.58;11.27;;;;;;;;;;5072610;28;20028;-91
2022/03/01 07:58:15;;;;;;;17.70;10.60;;;;;;;;;;5075610;28;20047;-90
2022/03/01 08:00:41;;;;;;;18.05;10.60;;;;;;;;;;5073297;28;20435;-87
2022/03/01 08:03:06;;;;;;;18.23;10.55;;;;;;;;;;5071650;28;20051;-87
2022/03/01 08:05:32;;;;;;;17.77;10.20;;;;;;;;;;5080149;28;20020;-88
2022/03/01 08:07:58;;;;;;;22.92;10.93;;;;;;;;;;5074890;28;20031;-91
2022/03/01 08:10:24;;;;;;;21.13;11.38;;;;;;;;;;5058133;28;20033;-87
2022/03/01 08:12:49;;;;;;;18.63;11.00;;;;;;;;;;5077012;28;20041;-91
2022/03/01 08:15:15;;;;;;;16.42;10.13;;;;;;;;;;5080761;28;20031;-90
2022/03/01 08:17:48;;;;;;;19.80;11.10;;;;;;;;;;5078365;28;20032;-87
2022/03/01 08:20:14;;;;;;;20.17;11.02;;;;;;;;;;5084817;28;20096;-92
2022/03/01 08:22:40;;;;;;;21.05;11.18;;;;;;;;;;5075388;28;20063;-88
2022/03/01 08:25:06;;;;;;;16.60;10.40;;;;;;;;;;5075700;28;20020;-89
2022/03/01 08:27:31;;;;;;;17.55;9.85;;;;;;;;;;5080305;28;20153;-91
2022/03/01 08:29:57;;;;;;;18.38;10.45;;;;;;;;;;5072688;28;20059;-88
2022/03/01 08:32:22;;;;;;;18.70;11.43;;;;;;;;;;5079209;28;20060;-90
2022/03/01 08:34:48;;;;;;;18.27;10.65;;;;;;;;;;5076309;28;20023;-91
2022/03/01 08:37:13;;;;;;;17.15;10.32;;;;;;;;;;5077581;28;20059;-92
2022/03/01 08:39:38;;;;;;;17.55;10.55;;;;;;;;;;5084600;28;20115;-87
2022/03/01 08:42:04;;;;;;;18.45;10.85;;;;;;;;;;5065963;28;20028;-91
2022/03/01 08:44:29;;;;;;;18.98;10.10;;;;;;;;;;5081595;28;20111;-90
2022/03/01 08:46:55;;;;;;;18.08;10.15;;;;;;;;;;5076772;28;20038;-90
2022/03/01 08:49:25;;;;;;;18.52;10.48;;;;;;;;;;5079877;28;20078;-92
2022/03/01 08:51:50;;;;;;;17.60;10.75;;;;;;;;;;5073263;28;20037;-87
2022/03/01 08:54:17;;;;;;;17.08;11.07;;;;;;;;;;5078463;28;20024;-88
2022/03/01 08:56:42;;;;;;;16.50;10.80;;;;;;;;;;5076019;28;20078;-88
2022/03/01 08:59:09;;;;;;;17.27;10.98;;;;;;;;;;5076988;28;20036;-90
2022/03/01 09:01:37;;;;;;;17.08;11.32;;;;;;;;;;5070959;28;20423;-87
2022/03/01 09:04:03;;;;;;;18.52;10.77;;;;;;;;;;5076537;28;20072;-87
2022/03/01 09:06:28;;;;;;;21.63;11.32;;;;;;;;;;5078071;28;20088;-89
2022/03/01 09:08:54;;;;;;;17.17;10.55;;;;;;;;;;5069906;28;20405;-91
2022/03/01 09:11:20;;;;;;;19.58;11.10;;;;;;;;;;5075007;28;20028;-91
2022/03/01 09:13:45;;;;;;;19.58;11.05;;;;;;;;;;5078124;28;20059;-92
2022/03/01 09:16:11;;;;;;;18.88;11.23;;;;;;;;;;5063859;28;20058;-86
2022/03/01 09:18:37;;;;;;;17.88;10.55;;;;;;;;;;5082238;28;20082;-92
2022/03/01 09:21:04;;;;;;;19.27;11.15;;;;;;;;;;5064022;28;20116;-87
2022/03/01 09:23:30;;;;;;;19.40;11.68;;;;;;;;;;5066861;28;20017;-87
2022/03/01 09:25:55;;;;;;;17.30;11.15;;;;;;;;;;5069650;28;20029;-88
2022/03/01 09:28:21;;;;;;;17.23;10.73;;;;;;;;;;5074489;28;20035;-87
2022/03/01 09:30:47;;;;;;;17.58;11.00;;;;;;;;;;5076825;28;20040;-89
2022/03/01 09:33:12;;;;;;;19.83;11.15;;;;;;;;;;5079380;28;20055;-92
2022/03/01 09:35:53;;;;;;;19.90;10.82;;;;;;;;;;5078273;28;20488;-92
2022/03/01 09:38:18;;;;;;;19.02;11.48;;;;;;;;;;5080376;28;20025;-87
2022/03/01 09:40:48;;;;;;;19.23;11.55;;;;;;;;;;5079367;28;20027;-87
2022/03/01 09:43:23;;;;;;;19.58;11.10;;;;;;;;;;5090698;28;20028;-88
2022/03/01 09:45:52;;;;;;;19.73;11.05;;;;;;;;;;5065224;28;20025;-87
2022/03/01 09:48:18;;;;;;;19.60;11.02;;;;;;;;;;5073363;28;20024;-92
2022/03/01 09:50:52;;;;;;;21.90;12.13;;;;;;;;;;5071859;28;20051;-92
2022/03/01 09:53:23;;;;;;;19.20;10.82;;;;;;;;;;5071658;28;20032;-88
2022/03/01 09:55:54;;;;;;;18.73;11.30;;;;;;;;;;5079837;28;20024;-91
2022/03/01 09:58:38;;;;;;;;;;;;;;;;;;;;;
2022/03/01 10:01:04;;;;;;;20.67;11.13;;;;;;;;;;5074944;28;20037;-90
2022/03/01 10:03:30;;;;;;;17.67;10.90;;;;;;;;;;5078641;28;20112;-91
2022/03/01 10:06:12;;;;;;;17.95;11.00;;;;;;;;;;5078716;28;20024;-87
2022/03/01 10:08:37;;;;;;;18.70;11.77;;;;;;;;;;5063122;28;20480;-88
2022/03/01 10:11:03;;;;;;;19.58;11.75;;;;;;;;;;5074529;28;20031;-91
2022/03/01 10:13:32;;;;;;;18.02;11.68;;;;;;;;;;5094221;28;20045;-91
2022/03/01 10:16:09;;;;;;;19.27;11.52;;;;;;;;;;5087639;28;20052;-92
2022/03/01 10:18:37;;;;;;;21.20;12.38;;;;;;;;;;5072413;28;20078;-90
2022/03/01 10:21:15;;;;;;;19.23;11.75;;;;;;;;;;5077678;28;20032;-90
2022/03/01 10:23:49;;;;;;;21.02;11.48;;;;;;;;;;5072757;28;20376;-88
2022/03/01 10:26:21;;;;;;;18.63;11.27;;;;;;;;;;5072038;28;20066;-93
2022/03/01 10:28:47;;;;;;;21.90;12.73;;;;;;;;;;5071440;28;20036;-88
2022/03/01 10:31:14;;;;;;;21.08;12.32;;;;;;;;;;5070189;28;20056;-88
2022/03/01 10:33:53;;;;;;;19.27;12.00;;;;;;;;;;5071720;28;20037;-89
2022/03/01 10:36:23;;;;;;;21.05;12.32;;;;;;;;;;5070881;28;20035;-88
2022/03/01 10:38:57;;;;;;;21.35;12.95;;;;;;;;;;5085718;28;20048;-87
2022/03/01 10:41:25;;;;;;;22.38;12.65;;;;;;;;;;5075316;28;20116;-89
2022/03/01 10:43:57;;;;;;;20.40;12.20;;;;;;;;;;5069679;28;20017;-90
2022/03/01 10:46:23;;;;;;;20.42;12.75;;;;;;;;;;5071397;28;20028;-88
2022/03/01 10:49:08;;;;;;;19.77;11.43;;;;;;;;;;5075250;28;20185;-92
2022/03/01 10:51:54;;;;;;;18.75;11.90;;;;;;;;;;5068263;28;20067;-89
2022/03/01 10:54:32;;;;;;;23.02;12.52;;;;;;;;;;5062472;28;20041;-87
2022/03/01 10:56:59;;;;;;;21.33;12.38;;;;;;;;;;5089878;28;20024;-90
2022/03/01 10:59:27;;;;;;;19.90;12.23;;;;;;;;;;5070456;28;20533;-88
2022/03/01 11:01:53;;;;;;;22.48;12.65;;;;;;;;;;5071962;28;20526;-90
2022/03/01 11:04:24;;;;;;;22.55;12.93;;;;;;;;;;5078424;28;20021;-88
2022/03/01 11:06:50;;;;;;;21.10;11.73;;;;;;;;;;5083343;28;20050;-91
2022/03/01 11:09:17;;;;;;;20.75;12.60;;;;;;;;;;5072755;28;20033;-87
2022/03/01 11:11:43;;;;;;;20.65;11.85;;;;;;;;;;5068459;28;20036;-90
2022/03/01 11:14:14;;;;;;;17.85;11.93;;;;;;;;;;5088810;28;20051;-88
2022/03/01 11:16:49;;;;;;;20.75;12.50;;;;;;;;;;5078891;28;20025;-91
2022/03/01 11:19:40;;;;;;;19.75;12.00;;;;;;;;;;5078474;28;20020;-91
2022/03/01 11:22:15;;;;;;;20.60;11.95;;;;;;;;;;5074688;28;20028;-86
2022/03/01 11:24:41;;;;;;;24.25;12.75;;;;;;;;;;5073331;28;20017;-87
2022/03/01 11:27:08;;;;;;;19.20;11.57;;;;;;;;;;5068530;28;20051;-86
2022/03/01 11:29:39;;;;;;;19.95;11.50;;;;;;;;;;5074523;28;20492;-89
2022/03/01 11:32:10;;;;;;;19.67;11.98;;;;;;;;;;5085747;28;20025;-91
2022/03/01 11:34:36;;;;;;;21.52;11.82;;;;;;;;;;5076960;28;20035;-88
2022/03/01 11:37:01;;;;;;;19.70;12.35;;;;;;;;;;5077339;28;20036;-91
2022/03/01 11:39:57;;;;;;;21.98;12.05;;;;;;;;;;5074825;28;20020;-89
2022/03/01 11:42:23;;;;;;;21.05;12.02;;;;;;;;;;5082872;28;20523;-91
2022/03/01 11:44:51;;;;;;;17.77;11.15;;;;;;;;;;5069809;28;20056;-88
2022/03/01 11:47:29;;;;;;;21.13;11.93;;;;;;;;;;5076847;28;20031;-89
2022/03/01 11:49:55;;;;;;;20.63;11.20;;;;;;;;;;5090528;28;20029;-89
2022/03/01 11:52:22;;;;;;;19.95;12.55;;;;;;;;;;5072804;28;20028;-89
2022/03/01 11:54:52;;;;;;;20.15;12.52;;;;;;;;;;5077286;28;20039;-91
2022/03/01 11:57:24;;;;;;;22.42;12.55;;;;;;;;;;5070509;28;20032;-88
2022/03/01 11:59:50;;;;;;;15.13;8.68;;;;;;;;;;5078911;28;20036;-88
2022/03/01 12:02:17;;;;;;;19.70;11.75;;;;;;;;;;5078870;28;20067;-88
2022/03/01 12:04:51;;;;;;;19.70;12.02;;;;;;;;;;5073990;28;20021;-89
2022/03/01 12:07:21;;;;;;;20.60;12.23;;;;;;;;;;5078466;28;20047;-91
2022/03/01 12:10:03;;;;;;;18.40;11.50;;;;;;;;;;5084503;28;20028;-89
2022/03/01 12:12:52;;;;;;;18.60;11.93;;;;;;;;;;5088305;28;20068;-87
2022/03/01 12:15:57;;;;;;;19.63;12.02;;;;;;;;;;5075868;28;20036;-91
2022/03/01 12:18:46;;;;;;;18.70;11.68;;;;;;;;;;5062917;28;20041;-91
2022/03/01 12:21:14;;;;;;;24.48;13.25;;;;;;;;;;5074563;28;20052;-91
2022/03/01 12:23:41;;;;;;;23.27;12.60;;;;;;;;;;5074436;28;20021;-88
2022/03/01 12:26:09;;;;;;;20.48;12.57;;;;;;;;;;5067931;28;20032;-92
2022/03/01 12:28:44;;;;;;;23.27;13.20;;;;;;;;;;5073719;28;20483;-89
2022/03/01 12:31:16;;;;;;;25.17;13.30;;;;;;;;;;5073265;28;20555;-89
2022/03/01 12:33:53;;;;;;;18.37;12.13;;;;;;;;;;5080564;28;20028;-88
2022/03/01 12:36:32;;;;;;;21.05;13.27;;;;;;;;;;5072694;28;20037;-88
2022/03/01 12:39:04;;;;;;;21.38;12.95;;;;;;;;;;5067339;28;20032;-88
2022/03/01 12:41:30;;;;;;;21.40;12.25;;;;;;;;;;5075051;28;20070;-91
2022/03/01 12:43:58;;;;;;;19.27;12.38;;;;;;;;;;5076875;28;20052;-91
2022/03/01 12:46:25;;;;;;;20.75;11.77;;;;;;;;;;5075264;28;20035;-88
2022/03/01 12:48:51;;;;;;;20.25;12.35;;;;;;;;;;5075198;28;20016;-90
2022/03/01 12:51:17;;;;;;;23.80;13.65;;;;;;;;;;5073654;28;20032;-91
2022/03/01 12:53:50;;;;;;;21.50;12.68;;;;;;;;;;5073754;28;20461;-87
2022/03/01 12:56:22;;;;;;;21.52;13.00;;;;;;;;;;5072248;28;20371;-92
2022/03/01 12:58:49;;;;;;;19.42;13.10;;;;;;;;;;5074785;28;20110;-88
2022/03/01 13:01:15;;;;;;;23.30;13.02;;;;;;;;;;5076123;28;20383;-88
2022/03/01 13:03:40;;;;;;;20.85;12.90;;;;;;;;;;5073419;28;20103;-89
2022/03/01 13:06:13;;;;;;;24.50;12.18;;;;;;;;;;5072069;28;20032;-91
2022/03/01 13:08:40;;;;;;;22.73;13.18;;;;;;;;;;5074021;28;20374;-88
2022/03/01 13:11:10;;;;;;;17.75;11.65;;;;;;;;;;5078991;28;20093;-90
2022/03/01 13:14:00;;;;;;;18.10;12.05;;;;;;;;;;5071033;28;20087;-88
2022/03/01 13:16:31;;;;;;;18.85;11.30;;;;;;;;;;5059979;28;20101;-88
2022/03/01 13:19:17;;;;;;;20.30;11.68;;;;;;;;;;5089693;28;20370;-88
2022/03/01 13:21:43;;;;;;;20.05;11.93;;;;;;;;;;5079431;28;20111;-89
2022/03/01 13:24:16;;;;;;;19.48;12.70;;;;;;;;;;5084651;28;20114;-88
2022/03/01 13:26:43;;;;;;;19.13;11.93;;;;;;;;;;5073086;28;20063;-89
2022/03/01 13:29:12;;;;;;;21.00;12.88;;;;;;;;;;5068127;28;20028;-91
2022/03/01 13:31:38;;;;;;;19.65;12.40;;;;;;;;;;5073584;28;20468;-88
2022/03/01 13:34:04;;;;;;;19.52;12.00;;;;;;;;;;5072235;28;20484;-88
2022/03/01 13:36:32;;;;;;;21.83;12.38;;;;;;;;;;5077271;28;20028;-91
2022/03/01 13:39:10;;;;;;;19.20;12.20;;;;;;;;;;5070793;28;20418;-88
2022/03/01 13:41:42;;;;;;;18.90;12.32;;;;;;;;;;5075474;28;20029;-89
2022/03/01 13:44:22;;;;;;;21.52;12.77;;;;;;;;;;5068260;28;20460;-91
2022/03/01 13:47:14;;;;;;;23.45;13.30;;;;;;;;;;5073301;28;20388;-91
2022/03/01 13:50:01;;;;;;;20.92;12.30;;;;;;;;;;5078975;28;20040;-88
2022/03/01 13:52:34;;;;;;;20.95;12.52;;;;;;;;;;5074718;28;20043;-88
2022/03/01 13:55:09;;;;;;;19.65;11.90;;;;;;;;;;5058998;28;20027;-89
2022/03/01 13:57:58;;;;;;;22.25;12.52;;;;;;;;;;5071632;28;20024;-87
2022/03/01 14:00:38;;;;;;;26.42;14.48;;;;;;;;;;5072345;28;21728;-90
2022/03/01 14:03:24;;;;;;;24.60;14.75;;;;;;;;;;5087618;28;20029;-88
2022/03/01 14:06:09;;;;;;;21.75;13.80;;;;;;;;;;5069943;28;20039;-89
2022/03/01 14:08:36;;;;;;;22.27;13.30;;;;;;;;;;5058363;28;20038;-91
2022/03/01 14:11:11;;;;;;;22.85;12.88;;;;;;;;;;5074081;28;20093;-91
2022/03/01 14:13:43;;;;;;;21.50;13.05;;;;;;;;;;5070932;28;20124;-88
2022/03/01 14:16:09;;;;;;;21.63;11.82;;;;;;;;;;5069812;28;20032;-88
2022/03/01 14:18:41;;;;;;;22.25;13.02;;;;;;;;;;5068938;28;20059;-89
2022/03/01 14:21:10;;;;;;;20.95;12.85;;;;;;;;;;5077002;28;20033;-90
2022/03/01 14:23:36;;;;;;;21.00;12.88;;;;;;;;;;5073382;28;20016;-88
2022/03/01 14:26:09;;;;;;;22.15;13.45;;;;;;;;;;5072375;28;20051;-88
2022/03/01 14:28:37;;;;;;;20.83;12.68;;;;;;;;;;5068405;28;20495;-88
2022/03/01 14:31:07;;;;;;;19.88;12.65;;;;;;;;;;5071625;28;20033;-89